createdAt,value
2022-09-03T00:00:33.279Z,60.90
2022-09-03T00:06:05.331Z,61.02
2022-09-03T00:11:29.059Z,60.72
2022-09-03T00:16:47.387Z,60.61
2022-09-03T00:22:05.739Z,60.65
2022-09-03T00:27:17.550Z,60.53
2022-09-03T00:32:44.250Z,60.73
2022-09-03T00:37:48.067Z,61.25
2022-09-03T00:43:35.074Z,61.46
2022-09-03T00:49:19.845Z,61.39
2022-09-03T00:54:47.036Z,61.34
2022-09-03T01:00:13.050Z,61.47
2022-09-03T01:06:09.364Z,61.51
2022-09-03T01:11:49.494Z,61.56
2022-09-03T01:17:13.431Z,61.77
2022-09-03T01:22:45.401Z,61.80
2022-09-03T01:28:33.631Z,61.73
2022-09-03T01:33:50.700Z,61.90
2022-09-03T01:39:00.019Z,61.92
2022-09-03T01:44:10.299Z,61.87
2022-09-03T01:49:42.717Z,62.12
2022-09-03T01:55:16.727Z,67.64
2022-09-03T02:00:20.875Z,59.39
2022-09-03T02:05:27.776Z,52.52
2022-09-03T02:11:02.930Z,53.88
2022-09-03T02:16:36.283Z,55.31
2022-09-03T02:21:54.875Z,56.26
2022-09-03T02:26:57.931Z,57.26
2022-09-03T02:32:00.999Z,58.07
2022-09-03T02:37:17.929Z,58.90
2022-09-03T02:42:21.075Z,59.43
2022-09-03T02:47:32.157Z,60.00
2022-09-03T02:52:35.220Z,60.55
2022-09-03T02:57:38.388Z,60.98
2022-09-03T03:02:43.446Z,61.51
2022-09-03T03:07:46.523Z,61.91
2022-09-03T03:12:49.591Z,62.07
2022-09-03T03:17:52.621Z,62.32
2022-09-03T03:22:55.640Z,67.49
2022-09-03T03:27:59.180Z,62.23
2022-09-03T03:33:02.207Z,53.35
2022-09-03T03:38:07.482Z,53.39
2022-09-03T03:43:10.515Z,54.59
2022-09-03T03:48:13.569Z,55.17
2022-09-03T03:53:16.644Z,56.20
2022-09-03T03:58:19.820Z,57.13
2022-09-03T04:03:22.947Z,58.17
2022-09-03T04:08:29.813Z,59.16
2022-09-03T04:13:38.804Z,59.94
2022-09-03T04:18:43.217Z,60.77
2022-09-03T04:23:48.874Z,61.38
2022-09-03T04:28:52.395Z,61.85
2022-09-03T04:33:55.591Z,61.68
2022-09-03T04:39:01.892Z,61.15
2022-09-03T04:44:04.990Z,60.45
2022-09-03T04:49:09.656Z,60.01
2022-09-03T04:54:12.718Z,60.29
2022-09-03T04:59:15.795Z,60.40
2022-09-03T05:04:19.890Z,60.18
2022-09-03T05:09:22.985Z,60.08
2022-09-03T05:14:25.981Z,60.29
2022-09-03T05:19:29.490Z,60.02
2022-09-03T05:24:32.419Z,59.77
2022-09-03T05:29:35.479Z,58.92
2022-09-03T05:34:39.204Z,53.40
2022-09-03T05:39:42.334Z,46.53
2022-09-03T05:44:45.440Z,43.55
2022-09-03T05:49:48.522Z,44.67
2022-09-03T05:54:51.592Z,46.91
2022-09-03T05:59:54.636Z,48.91
2022-09-03T06:04:57.868Z,50.53
2022-09-03T06:10:00.965Z,51.61
2022-09-03T06:15:06.123Z,52.70
2022-09-03T06:20:10.244Z,53.39
2022-09-03T06:25:15.897Z,54.54
2022-09-03T06:30:20.884Z,54.40
2022-09-03T06:35:24.023Z,54.95
2022-09-03T06:40:27.685Z,55.12
2022-09-03T06:45:31.666Z,54.98
2022-09-03T06:50:34.932Z,54.91
2022-09-03T06:55:40.280Z,55.24
2022-09-03T07:00:44.905Z,55.05
2022-09-03T07:05:48.785Z,54.96
2022-09-03T07:10:51.858Z,55.20
2022-09-03T07:16:04.839Z,55.55
2022-09-03T07:21:12.194Z,55.52
2022-09-03T07:26:26.552Z,54.85
2022-09-03T07:31:33.735Z,54.90
2022-09-03T07:36:43.175Z,55.17
2022-09-03T07:41:47.339Z,54.80
2022-09-03T07:46:51.681Z,55.05
2022-09-03T07:51:55.256Z,55.25
2022-09-03T07:56:59.325Z,55.47
2022-09-03T08:02:02.425Z,55.78
2022-09-03T08:07:05.547Z,55.85
2022-09-03T08:12:08.733Z,55.77
2022-09-03T08:17:12.887Z,56.04
2022-09-03T08:22:15.969Z,56.04
2022-09-03T08:27:26.349Z,55.95
2022-09-03T08:32:29.461Z,56.01
2022-09-03T08:37:33.335Z,56.03
2022-09-03T08:43:08.575Z,56.11
2022-09-03T08:48:23.766Z,55.97
2022-09-03T08:53:42.212Z,55.97
2022-09-03T08:58:45.397Z,55.99
2022-09-03T09:04:07.084Z,55.70
2022-09-03T09:09:15.827Z,55.42
2022-09-03T09:14:32.734Z,55.06
2022-09-03T09:20:21.656Z,54.81
2022-09-03T09:25:26.641Z,53.75
2022-09-03T09:30:32.635Z,53.11
2022-09-03T09:35:36.014Z,52.97
2022-09-03T09:40:44.755Z,52.85
2022-09-03T09:46:06.286Z,52.72
2022-09-03T09:51:38.944Z,52.37
2022-09-03T09:56:44.827Z,51.72
2022-09-03T10:01:48.007Z,49.63
2022-09-03T10:07:08.183Z,47.82
2022-09-03T10:12:31.490Z,48.78
2022-09-03T10:18:10.142Z,49.19
2022-09-03T10:23:50.426Z,48.84
2022-09-03T10:29:07.320Z,47.15
2022-09-03T10:34:23.524Z,45.78
2022-09-03T10:39:32.106Z,43.21
2022-09-03T10:45:10.327Z,43.68
2022-09-03T10:51:18.199Z,44.67
2022-09-03T10:56:29.778Z,45.42
2022-09-03T11:01:57.469Z,44.23
2022-09-03T11:07:12.972Z,44.31
2022-09-03T11:12:31.966Z,44.37
2022-09-03T11:18:18.272Z,44.35
2022-09-03T11:23:24.481Z,41.93
2022-09-03T11:28:45.491Z,40.96
2022-09-03T11:33:57.111Z,41.44
2022-09-03T11:39:00.890Z,40.91
2022-09-03T11:44:20.354Z,39.00
2022-09-03T11:49:31.514Z,39.53
2022-09-03T11:54:45.880Z,39.83
2022-09-03T11:59:49.241Z,39.57
2022-09-03T12:05:06.502Z,40.56
2022-09-03T12:10:51.162Z,37.99
2022-09-03T12:16:37.775Z,37.14
2022-09-03T12:21:41.775Z,38.65
2022-09-03T12:26:45.005Z,38.95
2022-09-03T12:31:51.121Z,39.03
2022-09-03T12:36:55.695Z,39.18
2022-09-03T12:42:09.550Z,38.46
2022-09-03T12:52:46.850Z,38.78
2022-09-03T12:58:04.318Z,38.46
2022-09-03T13:03:13.227Z,38.92
2022-09-03T13:08:23.900Z,38.56
2022-09-03T13:13:32.199Z,37.13
2022-09-03T13:18:44.872Z,37.45
2022-09-03T13:24:03.430Z,37.29
2022-09-03T13:29:39.806Z,37.24
2022-09-03T13:34:57.483Z,37.45
2022-09-03T13:40:31.787Z,37.49
2022-09-03T13:45:52.510Z,37.43
2022-09-03T13:51:32.490Z,37.39
2022-09-03T13:57:09.269Z,37.67
2022-09-03T14:02:27.319Z,37.51
2022-09-03T14:07:57.446Z,37.83
2022-09-03T14:13:11.775Z,37.92
2022-09-03T14:18:52.963Z,37.44
2022-09-03T14:24:09.610Z,38.00
2022-09-03T14:29:12.560Z,37.78
2022-09-03T14:34:43.235Z,38.50
2022-09-03T14:40:03.878Z,38.93
2022-09-03T14:45:30.491Z,39.12
2022-09-03T14:51:19.937Z,39.09
2022-09-03T14:56:39.070Z,38.77
2022-09-03T15:01:45.144Z,39.16
2022-09-03T15:07:06.884Z,39.25
2022-09-03T15:12:40.692Z,38.93
2022-09-03T15:18:06.875Z,39.35
2022-09-03T15:23:25.047Z,39.32
2022-09-03T15:29:05.032Z,39.74
2022-09-03T15:34:36.509Z,39.77
2022-09-03T15:39:44.567Z,39.79
2022-09-03T15:44:55.161Z,40.04
2022-09-03T15:50:03.594Z,40.45
2022-09-03T15:55:32.228Z,40.68
2022-09-03T16:01:11.527Z,40.23
2022-09-03T16:07:11.606Z,40.99
2022-09-03T16:13:04.887Z,42.52
2022-09-03T16:18:26.319Z,43.93
2022-09-03T16:23:46.932Z,44.48
2022-09-03T16:29:03.186Z,45.40
2022-09-03T16:34:19.073Z,45.80
2022-09-03T16:40:13.669Z,46.56
2022-09-03T16:46:06.965Z,47.17
2022-09-03T16:51:46.651Z,47.72
2022-09-03T16:57:19.396Z,49.06
2022-09-03T17:02:41.826Z,50.51
2022-09-03T17:07:59.255Z,51.55
2022-09-03T17:13:32.801Z,52.34
2022-09-03T17:18:59.187Z,52.82
2022-09-03T17:24:22.605Z,53.54
2022-09-03T17:29:53.867Z,54.17
2022-09-03T17:35:02.586Z,54.92
2022-09-03T17:40:49.605Z,55.43
2022-09-03T17:46:10.836Z,56.04
2022-09-03T17:51:46.559Z,56.54
2022-09-03T17:57:24.845Z,57.00
2022-09-03T18:02:45.771Z,57.43
2022-09-03T18:08:24.085Z,57.82
2022-09-03T18:13:42.423Z,58.04
2022-09-03T18:18:53.656Z,58.33
2022-09-03T18:24:35.175Z,58.75
2022-09-03T18:30:20.117Z,59.29
2022-09-03T18:35:45.738Z,59.49
2022-09-03T18:41:31.709Z,59.60
2022-09-03T18:48:02.256Z,60.15
2022-09-03T18:53:02.172Z,60.21
2022-09-03T18:58:36.391Z,59.88
2022-09-03T19:04:03.115Z,59.81
2022-09-03T19:10:04.757Z,60.26
2022-09-03T19:16:06.343Z,60.90
2022-09-03T19:21:49.610Z,61.46
2022-09-03T19:27:51.768Z,61.84
2022-09-03T19:33:30.717Z,62.24
2022-09-03T19:39:32.973Z,68.21
2022-09-03T19:45:43.070Z,60.66
2022-09-03T19:51:28.974Z,53.68
2022-09-03T19:56:50.543Z,54.90
2022-09-03T20:02:12.116Z,56.12
2022-09-03T20:07:35.221Z,57.18
2022-09-03T20:12:44.586Z,58.16
2022-09-03T20:17:53.748Z,59.01
2022-09-03T20:23:03.434Z,59.78
2022-09-03T20:28:45.616Z,60.43
2022-09-03T20:34:14.675Z,61.19
2022-09-03T20:39:36.072Z,61.78
2022-09-03T20:44:54.442Z,62.32
2022-09-03T20:50:23.211Z,68.10
2022-09-03T20:55:50.197Z,62.64
2022-09-03T21:00:58.224Z,54.51
2022-09-03T21:06:20.405Z,54.64
2022-09-03T21:11:47.434Z,56.39
2022-09-03T21:17:30.986Z,57.97
2022-09-03T21:23:25.937Z,59.16
2022-09-03T21:28:40.868Z,60.23
2022-09-03T21:33:51.510Z,61.19
2022-09-03T21:39:06.265Z,61.99
2022-09-03T21:44:20.946Z,67.74
2022-09-03T21:49:35.906Z,62.38
2022-09-03T21:54:40.353Z,54.63
2022-09-03T22:00:12.285Z,55.25
2022-09-03T22:05:18.605Z,56.84
2022-09-03T22:10:47.354Z,58.21
2022-09-03T22:15:57.835Z,59.26
2022-09-03T22:21:13.481Z,60.41
2022-09-03T22:26:36.207Z,61.40
2022-09-03T22:32:11.673Z,67.12
2022-09-03T22:37:34.867Z,61.70
2022-09-03T22:42:52.789Z,54.50
2022-09-03T22:48:26.588Z,55.46
2022-09-03T22:53:43.877Z,57.05
2022-09-03T22:59:13.181Z,58.38
2022-09-03T23:04:36.947Z,59.60
2022-09-03T23:09:44.471Z,60.74
2022-09-03T23:14:54.236Z,61.63
2022-09-03T23:20:26.720Z,67.12
2022-09-03T23:25:41.309Z,61.60
2022-09-03T23:30:44.397Z,54.42
2022-09-03T23:36:31.626Z,55.41
2022-09-03T23:42:11.294Z,57.13
2022-09-03T23:47:54.796Z,58.67
2022-09-03T23:53:09.309Z,60.02
2022-09-03T23:58:42.209Z,60.91
